sensor_id;sensor_type;location;lat;lon;timestamp;pressure;altitude;pressure_sealevel;temperature;humidity
84576;BME280;74800;44.448;18.652;2024-01-15T00:01:06;73915.34;;;-142.59;100.00
84576;BME280;74800;44.448;18.652;2024-01-15T00:03:31;73915.34;;;-142.59;100.00
84576;BME280;74800;44.448;18.652;2024-01-15T00:05:57;73915.34;;;-142.59;100.00
84576;BME280;74800;44.448;18.652;2024-01-15T00:08:22;73915.34;;;-142.59;100.00
84576;BME280;74800;44.448;18.652;2024-01-15T00:10:47;73915.34;;;-142.59;100.00
84576;BME280;74800;44.448;18.652;2024-01-15T00:13:13;73915.34;;;-142.59;100.00
84576;BME280;74800;44.448;18.652;2024-01-15T00:15:38;73915.34;;;-142.59;100.00
84576;BME280;74800;44.448;18.652;2024-01-15T00:18:04;73915.34;;;-142.59;100.00
84576;BME280;74800;44.448;18.652;2024-01-15T00:20:29;73915.34;;;-142.59;100.00
84576;BME280;74800;44.448;18.652;2024-01-15T00:22:54;73915.34;;;-142.59;100.00
84576;BME280;74800;44.448;18.652;2024-01-15T00:25:20;73915.34;;;-142.59;100.00
84576;BME280;74800;44.448;18.652;2024-01-15T00:27:45;73915.34;;;-142.59;100.00
84576;BME280;74800;44.448;18.652;2024-01-15T00:30:11;73915.34;;;-142.59;100.00
84576;BME280;74800;44.448;18.652;2024-01-15T00:32:36;73915.34;;;-142.59;100.00
84576;BME280;74800;44.448;18.652;2024-01-15T00:35:02;73915.34;;;-142.59;100.00
84576;BME280;74800;44.448;18.652;2024-01-15T00:37:28;73915.34;;;-142.59;100.00
84576;BME280;74800;44.448;18.652;2024-01-15T00:39:53;73915.34;;;-142.59;100.00
84576;BME280;74800;44.448;18.652;2024-01-15T00:42:19;73915.34;;;-142.59;100.00
84576;BME280;74800;44.448;18.652;2024-01-15T00:44:44;73915.34;;;-142.59;100.00
84576;BME280;74800;44.448;18.652;2024-01-15T00:47:09;73915.34;;;-142.59;100.00
84576;BME280;74800;44.448;18.652;2024-01-15T00:49:35;73915.34;;;-142.59;100.00
84576;BME280;74800;44.448;18.652;2024-01-15T00:52:00;73915.34;;;-142.59;100.00
84576;BME280;74800;44.448;18.652;2024-01-15T00:54:26;73915.34;;;-142.59;100.00
84576;BME280;74800;44.448;18.652;2024-01-15T00:56:51;73915.34;;;-142.59;100.00
84576;BME280;74800;44.448;18.652;2024-01-15T00:59:17;73915.34;;;-142.59;100.00
84576;BME280;74800;44.448;18.652;2024-01-15T01:01:43;73915.34;;;-142.59;100.00
84576;BME280;74800;44.448;18.652;2024-01-15T01:04:09;73915.34;;;-142.59;100.00
84576;BME280;74800;44.448;18.652;2024-01-15T01:06:34;73915.34;;;-142.59;100.00
84576;BME280;74800;44.448;18.652;2024-01-15T01:09:00;73915.34;;;-142.59;100.00
84576;BME280;74800;44.448;18.652;2024-01-15T01:11:25;73915.34;;;-142.59;100.00
84576;BME280;74800;44.448;18.652;2024-01-15T01:13:50;73915.34;;;-142.59;100.00
84576;BME280;74800;44.448;18.652;2024-01-15T01:16:16;73915.34;;;-142.59;100.00
84576;BME280;74800;44.448;18.652;2024-01-15T01:18:41;73915.34;;;-142.59;100.00
84576;BME280;74800;44.448;18.652;2024-01-15T01:21:06;73915.34;;;-142.59;100.00
84576;BME280;74800;44.448;18.652;2024-01-15T01:23:32;73915.34;;;-142.59;100.00
84576;BME280;74800;44.448;18.652;2024-01-15T01:25:57;73915.34;;;-142.59;100.00
84576;BME280;74800;44.448;18.652;2024-01-15T01:28:22;73915.34;;;-142.59;100.00
84576;BME280;74800;44.448;18.652;2024-01-15T01:30:48;73915.34;;;-142.59;100.00
84576;BME280;74800;44.448;18.652;2024-01-15T01:33:13;73915.34;;;-142.59;100.00
84576;BME280;74800;44.448;18.652;2024-01-15T01:35:39;73915.34;;;-142.59;100.00
84576;BME280;74800;44.448;18.652;2024-01-15T01:38:04;73915.34;;;-142.59;100.00
84576;BME280;74800;44.448;18.652;2024-01-15T01:40:29;73915.34;;;-142.59;100.00
84576;BME280;74800;44.448;18.652;2024-01-15T01:42:55;73915.34;;;-142.59;100.00
84576;BME280;74800;44.448;18.652;2024-01-15T01:45:20;73915.34;;;-142.59;100.00
84576;BME280;74800;44.448;18.652;2024-01-15T01:47:45;73915.34;;;-142.59;100.00
84576;BME280;74800;44.448;18.652;2024-01-15T01:50:11;73915.34;;;-142.59;100.00
84576;BME280;74800;44.448;18.652;2024-01-15T01:52:37;73915.34;;;-142.59;100.00
84576;BME280;74800;44.448;18.652;2024-01-15T01:55:03;73915.34;;;-142.59;100.00
84576;BME280;74800;44.448;18.652;2024-01-15T01:57:30;73915.34;;;-142.59;100.00
84576;BME280;74800;44.448;18.652;2024-01-15T01:59:55;73915.34;;;-142.59;100.00
84576;BME280;74800;44.448;18.652;2024-01-15T02:02:21;73915.34;;;-142.59;100.00
84576;BME280;74800;44.448;18.652;2024-01-15T02:04:47;73915.34;;;-142.59;100.00
84576;BME280;74800;44.448;18.652;2024-01-15T02:07:14;73915.34;;;-142.59;100.00
84576;BME280;74800;44.448;18.652;2024-01-15T02:09:43;73915.34;;;-142.59;100.00
84576;BME280;74800;44.448;18.652;2024-01-15T02:12:09;73915.34;;;-142.59;100.00
84576;BME280;74800;44.448;18.652;2024-01-15T02:14:35;73915.34;;;-142.59;100.00
84576;BME280;74800;44.448;18.652;2024-01-15T02:17:00;73915.34;;;-142.59;100.00
84576;BME280;74800;44.448;18.652;2024-01-15T02:19:25;73915.34;;;-142.59;100.00
84576;BME280;74800;44.448;18.652;2024-01-15T02:21:51;73915.34;;;-142.59;100.00
84576;BME280;74800;44.448;18.652;2024-01-15T02:24:16;73915.34;;;-142.59;100.00
84576;BME280;74800;44.448;18.652;2024-01-15T02:26:42;73915.34;;;-142.59;100.00
84576;BME280;74800;44.448;18.652;2024-01-15T02:29:07;73915.34;;;-142.59;100.00
84576;BME280;74800;44.448;18.652;2024-01-15T02:31:36;73915.34;;;-142.59;100.00
84576;BME280;74800;44.448;18.652;2024-01-15T02:34:01;73915.34;;;-142.59;100.00
84576;BME280;74800;44.448;18.652;2024-01-15T02:36:26;73915.34;;;-142.59;100.00
84576;BME280;74800;44.448;18.652;2024-01-15T02:38:52;73915.34;;;-142.59;100.00
84576;BME280;74800;44.448;18.652;2024-01-15T02:41:17;73915.34;;;-142.59;100.00
84576;BME280;74800;44.448;18.652;2024-01-15T02:43:43;73915.34;;;-142.59;100.00
84576;BME280;74800;44.448;18.652;2024-01-15T02:46:08;73915.34;;;-142.59;100.00
84576;BME280;74800;44.448;18.652;2024-01-15T02:48:34;73915.34;;;-142.59;100.00
84576;BME280;74800;44.448;18.652;2024-01-15T02:51:00;73915.34;;;-142.59;100.00
84576;BME280;74800;44.448;18.652;2024-01-15T02:53:25;73915.34;;;-142.59;100.00
84576;BME280;74800;44.448;18.652;2024-01-15T02:55:51;73915.34;;;-142.59;100.00
84576;BME280;74800;44.448;18.652;2024-01-15T02:58:17;73915.34;;;-142.59;100.00
84576;BME280;74800;44.448;18.652;2024-01-15T03:00:43;73915.34;;;-142.59;100.00
84576;BME280;74800;44.448;18.652;2024-01-15T03:03:08;73915.34;;;-142.59;100.00
84576;BME280;74800;44.448;18.652;2024-01-15T03:05:34;73915.34;;;-142.59;100.00
84576;BME280;74800;44.448;18.652;2024-01-15T03:07:59;73915.34;;;-142.59;100.00
84576;BME280;74800;44.448;18.652;2024-01-15T03:10:25;73915.34;;;-142.59;100.00
84576;BME280;74800;44.448;18.652;2024-01-15T03:12:50;73915.34;;;-142.59;100.00
84576;BME280;74800;44.448;18.652;2024-01-15T03:15:15;73915.34;;;-142.59;100.00
84576;BME280;74800;44.448;18.652;2024-01-15T03:17:41;73915.34;;;-142.59;100.00
84576;BME280;74800;44.448;18.652;2024-01-15T03:20:08;73915.34;;;-142.59;100.00
84576;BME280;74800;44.448;18.652;2024-01-15T03:22:33;73915.34;;;-142.59;100.00
84576;BME280;74800;44.448;18.652;2024-01-15T03:24:58;73915.34;;;-142.59;100.00
84576;BME280;74800;44.448;18.652;2024-01-15T03:27:24;73915.34;;;-142.59;100.00
84576;BME280;74800;44.448;18.652;2024-01-15T03:29:51;73915.34;;;-142.59;100.00
84576;BME280;74800;44.448;18.652;2024-01-15T03:32:16;73915.34;;;-142.59;100.00
84576;BME280;74800;44.448;18.652;2024-01-15T03:34:42;73915.34;;;-142.59;100.00
84576;BME280;74800;44.448;18.652;2024-01-15T03:37:07;73915.34;;;-142.59;100.00
84576;BME280;74800;44.448;18.652;2024-01-15T03:39:32;73915.34;;;-142.59;100.00
84576;BME280;74800;44.448;18.652;2024-01-15T03:41:58;73915.34;;;-142.59;100.00
84576;BME280;74800;44.448;18.652;2024-01-15T03:44:23;73915.34;;;-142.59;100.00
84576;BME280;74800;44.448;18.652;2024-01-15T03:46:49;73915.34;;;-142.59;100.00
84576;BME280;74800;44.448;18.652;2024-01-15T03:49:14;73915.34;;;-142.59;100.00
84576;BME280;74800;44.448;18.652;2024-01-15T03:51:40;73915.34;;;-142.59;100.00
84576;BME280;74800;44.448;18.652;2024-01-15T03:54:05;73915.34;;;-142.59;100.00
84576;BME280;74800;44.448;18.652;2024-01-15T03:56:30;73915.34;;;-142.59;100.00
84576;BME280;74800;44.448;18.652;2024-01-15T03:58:56;73915.34;;;-142.59;100.00
84576;BME280;74800;44.448;18.652;2024-01-15T04:01:21;73915.34;;;-142.59;100.00
84576;BME280;74800;44.448;18.652;2024-01-15T04:03:47;73915.34;;;-142.59;100.00
84576;BME280;74800;44.448;18.652;2024-01-15T04:06:12;73915.34;;;-142.59;100.00
84576;BME280;74800;44.448;18.652;2024-01-15T04:08:37;73915.34;;;-142.59;100.00
84576;BME280;74800;44.448;18.652;2024-01-15T04:11:03;73915.34;;;-142.59;100.00
84576;BME280;74800;44.448;18.652;2024-01-15T04:13:31;73915.34;;;-142.59;100.00
84576;BME280;74800;44.448;18.652;2024-01-15T04:15:57;73915.34;;;-142.59;100.00
84576;BME280;74800;44.448;18.652;2024-01-15T04:18:22;73915.34;;;-142.59;100.00
84576;BME280;74800;44.448;18.652;2024-01-15T04:20:47;73915.34;;;-142.59;100.00
84576;BME280;74800;44.448;18.652;2024-01-15T04:23:13;73915.34;;;-142.59;100.00
84576;BME280;74800;44.448;18.652;2024-01-15T04:25:38;73915.34;;;-142.59;100.00
84576;BME280;74800;44.448;18.652;2024-01-15T04:28:08;73915.34;;;-142.59;100.00
84576;BME280;74800;44.448;18.652;2024-01-15T04:30:33;73915.34;;;-142.59;100.00
84576;BME280;74800;44.448;18.652;2024-01-15T04:32:58;73915.34;;;-142.59;100.00
84576;BME280;74800;44.448;18.652;2024-01-15T04:35:24;73915.34;;;-142.59;100.00
84576;BME280;74800;44.448;18.652;2024-01-15T04:37:49;73915.34;;;-142.59;100.00
84576;BME280;74800;44.448;18.652;2024-01-15T04:40:14;73915.34;;;-142.59;100.00
84576;BME280;74800;44.448;18.652;2024-01-15T04:42:40;73915.34;;;-142.59;100.00
84576;BME280;74800;44.448;18.652;2024-01-15T04:45:05;73915.34;;;-142.59;100.00
84576;BME280;74800;44.448;18.652;2024-01-15T04:47:31;73915.34;;;-142.59;100.00
84576;BME280;74800;44.448;18.652;2024-01-15T04:49:56;73915.34;;;-142.59;100.00
84576;BME280;74800;44.448;18.652;2024-01-15T04:52:22;73915.34;;;-142.59;100.00
84576;BME280;74800;44.448;18.652;2024-01-15T04:54:47;73915.34;;;-142.59;100.00
84576;BME280;74800;44.448;18.652;2024-01-15T04:57:12;73915.34;;;-142.59;100.00
84576;BME280;74800;44.448;18.652;2024-01-15T04:59:38;73915.34;;;-142.59;100.00
84576;BME280;74800;44.448;18.652;2024-01-15T05:02:04;73915.34;;;-142.59;100.00
84576;BME280;74800;44.448;18.652;2024-01-15T05:04:30;73915.34;;;-142.59;100.00
84576;BME280;74800;44.448;18.652;2024-01-15T05:06:55;73915.34;;;-142.59;100.00
84576;BME280;74800;44.448;18.652;2024-01-15T05:09:21;73915.34;;;-142.59;100.00
84576;BME280;74800;44.448;18.652;2024-01-15T05:11:46;73915.34;;;-142.59;100.00
84576;BME280;74800;44.448;18.652;2024-01-15T05:14:11;73915.34;;;-142.59;100.00
84576;BME280;74800;44.448;18.652;2024-01-15T05:16:46;73915.34;;;-142.59;100.00
84576;BME280;74800;44.448;18.652;2024-01-15T05:19:11;73915.34;;;-142.59;100.00
84576;BME280;74800;44.448;18.652;2024-01-15T05:21:37;73915.34;;;-142.59;100.00
84576;BME280;74800;44.448;18.652;2024-01-15T05:24:02;73915.34;;;-142.59;100.00
84576;BME280;74800;44.448;18.652;2024-01-15T05:26:28;73915.34;;;-142.59;100.00
84576;BME280;74800;44.448;18.652;2024-01-15T05:28:53;73915.34;;;-142.59;100.00
84576;BME280;74800;44.448;18.652;2024-01-15T05:31:18;73915.34;;;-142.59;100.00
84576;BME280;74800;44.448;18.652;2024-01-15T05:33:44;73915.34;;;-142.59;100.00
84576;BME280;74800;44.448;18.652;2024-01-15T05:36:09;73915.34;;;-142.59;100.00
84576;BME280;74800;44.448;18.652;2024-01-15T05:38:34;73915.34;;;-142.59;100.00
84576;BME280;74800;44.448;18.652;2024-01-15T05:41:00;73915.34;;;-142.59;100.00
84576;BME280;74800;44.448;18.652;2024-01-15T05:43:25;73915.34;;;-142.59;100.00
84576;BME280;74800;44.448;18.652;2024-01-15T05:45:50;73915.34;;;-142.59;100.00
84576;BME280;74800;44.448;18.652;2024-01-15T05:48:16;73915.34;;;-142.59;100.00
84576;BME280;74800;44.448;18.652;2024-01-15T05:50:41;73915.34;;;-142.59;100.00
84576;BME280;74800;44.448;18.652;2024-01-15T05:53:07;73915.34;;;-142.59;100.00
84576;BME280;74800;44.448;18.652;2024-01-15T05:55:32;73915.34;;;-142.59;100.00
84576;BME280;74800;44.448;18.652;2024-01-15T05:57:57;73915.34;;;-142.59;100.00
84576;BME280;74800;44.448;18.652;2024-01-15T06:00:23;73915.34;;;-142.59;100.00
84576;BME280;74800;44.448;18.652;2024-01-15T06:02:48;73915.34;;;-142.59;100.00
84576;BME280;74800;44.448;18.652;2024-01-15T06:05:14;73915.34;;;-142.59;100.00
84576;BME280;74800;44.448;18.652;2024-01-15T06:07:39;73915.34;;;-142.59;100.00
84576;BME280;74800;44.448;18.652;2024-01-15T06:10:04;73915.34;;;-142.59;100.00
84576;BME280;74800;44.448;18.652;2024-01-15T06:12:30;73915.34;;;-142.59;100.00
84576;BME280;74800;44.448;18.652;2024-01-15T06:14:56;73915.34;;;-142.59;100.00
84576;BME280;74800;44.448;18.652;2024-01-15T06:17:21;73915.34;;;-142.59;100.00
84576;BME280;74800;44.448;18.652;2024-01-15T06:19:47;73915.34;;;-142.59;100.00
84576;BME280;74800;44.448;18.652;2024-01-15T06:22:12;73915.34;;;-142.59;100.00
84576;BME280;74800;44.448;18.652;2024-01-15T06:24:37;73915.34;;;-142.59;100.00
84576;BME280;74800;44.448;18.652;2024-01-15T06:27:03;73915.34;;;-142.59;100.00
84576;BME280;74800;44.448;18.652;2024-01-15T06:29:28;73915.34;;;-142.59;100.00
84576;BME280;74800;44.448;18.652;2024-01-15T06:31:55;73915.34;;;-142.59;100.00
84576;BME280;74800;44.448;18.652;2024-01-15T06:34:20;73915.34;;;-142.59;100.00
84576;BME280;74800;44.448;18.652;2024-01-15T06:36:45;73915.34;;;-142.59;100.00
84576;BME280;74800;44.448;18.652;2024-01-15T06:39:11;73915.34;;;-142.59;100.00
84576;BME280;74800;44.448;18.652;2024-01-15T06:41:36;73915.34;;;-142.59;100.00
84576;BME280;74800;44.448;18.652;2024-01-15T06:44:09;73915.34;;;-142.59;100.00
84576;BME280;74800;44.448;18.652;2024-01-15T06:46:34;73915.34;;;-142.59;100.00
84576;BME280;74800;44.448;18.652;2024-01-15T06:49:00;73915.34;;;-142.59;100.00
84576;BME280;74800;44.448;18.652;2024-01-15T06:51:25;73915.34;;;-142.59;100.00
84576;BME280;74800;44.448;18.652;2024-01-15T06:53:51;73915.34;;;-142.59;100.00
84576;BME280;74800;44.448;18.652;2024-01-15T06:56:16;73915.34;;;-142.59;100.00
84576;BME280;74800;44.448;18.652;2024-01-15T06:58:41;73915.34;;;-142.59;100.00
84576;BME280;74800;44.448;18.652;2024-01-15T07:01:07;73915.34;;;-142.59;100.00
84576;BME280;74800;44.448;18.652;2024-01-15T07:03:33;73915.34;;;-142.59;100.00
84576;BME280;74800;44.448;18.652;2024-01-15T07:05:58;73915.34;;;-142.59;100.00
84576;BME280;74800;44.448;18.652;2024-01-15T07:08:23;73915.34;;;-142.59;100.00
84576;BME280;74800;44.448;18.652;2024-01-15T07:10:49;73915.34;;;-142.59;100.00
84576;BME280;74800;44.448;18.652;2024-01-15T07:13:14;73915.34;;;-142.59;100.00
84576;BME280;74800;44.448;18.652;2024-01-15T07:15:40;73915.34;;;-142.59;100.00
84576;BME280;74800;44.448;18.652;2024-01-15T07:18:05;73915.34;;;-142.59;100.00
84576;BME280;74800;44.448;18.652;2024-01-15T07:20:30;73915.34;;;-142.59;100.00
84576;BME280;74800;44.448;18.652;2024-01-15T07:22:56;73915.34;;;-142.59;100.00
84576;BME280;74800;44.448;18.652;2024-01-15T07:25:22;73915.34;;;-142.59;100.00
84576;BME280;74800;44.448;18.652;2024-01-15T07:27:47;73915.34;;;-142.59;100.00
84576;BME280;74800;44.448;18.652;2024-01-15T07:30:13;73915.34;;;-142.59;100.00
84576;BME280;74800;44.448;18.652;2024-01-15T07:32:38;73915.34;;;-142.59;100.00
84576;BME280;74800;44.448;18.652;2024-01-15T07:35:04;73915.34;;;-142.59;100.00
84576;BME280;74800;44.448;18.652;2024-01-15T07:37:30;73915.34;;;-142.59;100.00
84576;BME280;74800;44.448;18.652;2024-01-15T07:39:55;73915.34;;;-142.59;100.00
84576;BME280;74800;44.448;18.652;2024-01-15T07:42:21;73915.34;;;-142.59;100.00
84576;BME280;74800;44.448;18.652;2024-01-15T07:44:46;73915.34;;;-142.59;100.00
84576;BME280;74800;44.448;18.652;2024-01-15T07:47:12;73915.34;;;-142.59;100.00
84576;BME280;74800;44.448;18.652;2024-01-15T07:49:37;73915.34;;;-142.59;100.00
84576;BME280;74800;44.448;18.652;2024-01-15T07:52:03;73915.34;;;-142.59;100.00
84576;BME280;74800;44.448;18.652;2024-01-15T07:54:30;73915.34;;;-142.59;100.00
84576;BME280;74800;44.448;18.652;2024-01-15T07:56:56;73915.34;;;-142.59;100.00
84576;BME280;74800;44.448;18.652;2024-01-15T07:59:22;73915.34;;;-142.59;100.00
84576;BME280;74800;44.448;18.652;2024-01-15T08:01:48;73915.34;;;-142.59;100.00
84576;BME280;74800;44.448;18.652;2024-01-15T08:04:13;73915.34;;;-142.59;100.00
84576;BME280;74800;44.448;18.652;2024-01-15T08:06:39;73915.34;;;-142.59;100.00
84576;BME280;74800;44.448;18.652;2024-01-15T08:09:04;73915.34;;;-142.59;100.00
84576;BME280;74800;44.448;18.652;2024-01-15T08:11:29;73915.34;;;-142.59;100.00
84576;BME280;74800;44.448;18.652;2024-01-15T08:13:55;73915.34;;;-142.59;100.00
84576;BME280;74800;44.448;18.652;2024-01-15T08:16:21;73915.34;;;-142.59;100.00
84576;BME280;74800;44.448;18.652;2024-01-15T08:18:46;73915.34;;;-142.59;100.00
84576;BME280;74800;44.448;18.652;2024-01-15T08:21:12;73915.34;;;-142.59;100.00
84576;BME280;74800;44.448;18.652;2024-01-15T08:23:38;73915.34;;;-142.59;100.00
84576;BME280;74800;44.448;18.652;2024-01-15T08:26:04;73915.34;;;-142.59;100.00
84576;BME280;74800;44.448;18.652;2024-01-15T08:28:30;73915.34;;;-142.59;100.00
84576;BME280;74800;44.448;18.652;2024-01-15T08:30:55;73915.34;;;-142.59;100.00
84576;BME280;74800;44.448;18.652;2024-01-15T08:33:21;73915.34;;;-142.59;100.00
84576;BME280;74800;44.448;18.652;2024-01-15T08:35:47;73915.34;;;-142.59;100.00
84576;BME280;74800;44.448;18.652;2024-01-15T08:38:12;73915.34;;;-142.59;100.00
84576;BME280;74800;44.448;18.652;2024-01-15T08:40:38;73915.34;;;-142.59;100.00
84576;BME280;74800;44.448;18.652;2024-01-15T08:43:03;73915.34;;;-142.59;100.00
84576;BME280;74800;44.448;18.652;2024-01-15T08:45:29;73915.34;;;-142.59;100.00
84576;BME280;74800;44.448;18.652;2024-01-15T08:47:54;73915.34;;;-142.59;100.00
84576;BME280;74800;44.448;18.652;2024-01-15T08:50:20;73915.34;;;-142.59;100.00
84576;BME280;74800;44.448;18.652;2024-01-15T08:52:45;73915.34;;;-142.59;100.00
84576;BME280;74800;44.448;18.652;2024-01-15T08:55:11;73915.34;;;-142.59;100.00
84576;BME280;74800;44.448;18.652;2024-01-15T08:57:38;73915.34;;;-142.59;100.00
84576;BME280;74800;44.448;18.652;2024-01-15T09:00:04;73915.34;;;-142.59;100.00
84576;BME280;74800;44.448;18.652;2024-01-15T09:02:33;73915.34;;;-142.59;100.00
84576;BME280;74800;44.448;18.652;2024-01-15T09:05:01;73915.34;;;-142.59;100.00
84576;BME280;74800;44.448;18.652;2024-01-15T09:07:26;73915.34;;;-142.59;100.00
84576;BME280;74800;44.448;18.652;2024-01-15T09:09:52;73915.34;;;-142.59;100.00
84576;BME280;74800;44.448;18.652;2024-01-15T09:12:18;73915.34;;;-142.59;100.00
84576;BME280;74800;44.448;18.652;2024-01-15T09:14:43;73915.34;;;-142.59;100.00
84576;BME280;74800;44.448;18.652;2024-01-15T09:17:09;73915.34;;;-142.59;100.00
84576;BME280;74800;44.448;18.652;2024-01-15T09:19:34;73915.34;;;-142.59;100.00
84576;BME280;74800;44.448;18.652;2024-01-15T09:22:00;73915.34;;;-142.59;100.00
84576;BME280;74800;44.448;18.652;2024-01-15T09:24:26;73915.34;;;-142.59;100.00
84576;BME280;74800;44.448;18.652;2024-01-15T09:26:51;73915.34;;;-142.59;100.00
84576;BME280;74800;44.448;18.652;2024-01-15T09:29:17;73915.34;;;-142.59;100.00
84576;BME280;74800;44.448;18.652;2024-01-15T09:31:43;73915.34;;;-142.59;100.00
84576;BME280;74800;44.448;18.652;2024-01-15T09:34:08;73915.34;;;-142.59;100.00
84576;BME280;74800;44.448;18.652;2024-01-15T09:36:38;73915.34;;;-142.59;100.00
84576;BME280;74800;44.448;18.652;2024-01-15T09:39:04;73915.34;;;-142.59;100.00
84576;BME280;74800;44.448;18.652;2024-01-15T09:58:39;97793.16;;;3.41;69.18
84576;BME280;74800;44.448;18.652;2024-01-15T10:01:04;97797.34;;;3.65;69.87
84576;BME280;74800;44.448;18.652;2024-01-15T10:03:30;97793.91;;;3.64;69.30
84576;BME280;74800;44.448;18.652;2024-01-15T10:05:58;97786.97;;;3.18;69.86
84576;BME280;74800;44.448;18.652;2024-01-15T10:08:25;97784.66;;;3.37;70.32
84576;BME280;74800;44.448;18.652;2024-01-15T10:10:51;97785.91;;;3.21;71.12
84576;BME280;74800;44.448;18.652;2024-01-15T10:13:18;97800.50;;;3.33;71.67
84576;BME280;74800;44.448;18.652;2024-01-15T10:15:47;97809.00;;;3.37;70.98
84576;BME280;74800;44.448;18.652;2024-01-15T10:18:13;97810.44;;;3.38;71.12
84576;BME280;74800;44.448;18.652;2024-01-15T10:20:39;97806.06;;;3.20;71.84
84576;BME280;74800;44.448;18.652;2024-01-15T10:23:05;97812.72;;;3.19;72.54
84576;BME280;74800;44.448;18.652;2024-01-15T10:25:35;97808.06;;;3.27;72.52
84576;BME280;74800;44.448;18.652;2024-01-15T10:28:02;97801.06;;;3.31;72.17
84576;BME280;74800;44.448;18.652;2024-01-15T10:30:29;97796.94;;;3.46;72.15
84576;BME280;74800;44.448;18.652;2024-01-15T10:33:01;97795.13;;;3.48;72.37
84576;BME280;74800;44.448;18.652;2024-01-15T10:35:34;97780.53;;;3.59;72.46
84576;BME280;74800;44.448;18.652;2024-01-15T10:38:00;97769.38;;;3.77;71.34
84576;BME280;74800;44.448;18.652;2024-01-15T10:40:27;97778.41;;;3.57;71.57
84576;BME280;74800;44.448;18.652;2024-01-15T10:42:52;97777.50;;;3.70;72.41
84576;BME280;74800;44.448;18.652;2024-01-15T10:45:19;97775.34;;;3.68;71.55
84576;BME280;74800;44.448;18.652;2024-01-15T10:47:44;97772.28;;;3.72;72.56
84576;BME280;74800;44.448;18.652;2024-01-15T10:50:11;97777.50;;;3.85;71.71
84576;BME280;74800;44.448;18.652;2024-01-15T10:52:37;97777.50;;;3.70;71.82
84576;BME280;74800;44.448;18.652;2024-01-15T10:55:07;97781.47;;;3.69;72.53
84576;BME280;74800;44.448;18.652;2024-01-15T10:57:37;97766.50;;;3.75;72.81
84576;BME280;74800;44.448;18.652;2024-01-15T11:00:04;97755.69;;;3.68;72.73
84576;BME280;74800;44.448;18.652;2024-01-15T11:02:35;97755.31;;;3.71;72.54
84576;BME280;74800;44.448;18.652;2024-01-15T11:05:01;97746.63;;;3.96;72.16
84576;BME280;74800;44.448;18.652;2024-01-15T11:07:26;97740.16;;;4.14;71.19
84576;BME280;74800;44.448;18.652;2024-01-15T11:09:52;97738.50;;;4.03;71.61
84576;BME280;74800;44.448;18.652;2024-01-15T11:12:17;97738.34;;;4.16;71.59
84576;BME280;74800;44.448;18.652;2024-01-15T11:14:49;97727.53;;;3.93;72.14
84576;BME280;74800;44.448;18.652;2024-01-15T11:17:16;97726.06;;;4.15;72.38
84576;BME280;74800;44.448;18.652;2024-01-15T11:19:44;97723.16;;;4.28;71.34
84576;BME280;74800;44.448;18.652;2024-01-15T11:27:45;97705.78;;;4.39;72.25
84576;BME280;74800;44.448;18.652;2024-01-15T11:30:13;97694.16;;;4.06;73.89
84576;BME280;74800;44.448;18.652;2024-01-15T11:32:39;97692.72;;;3.82;75.83
84576;BME280;74800;44.448;18.652;2024-01-15T11:35:08;97690.38;;;3.79;75.74
84576;BME280;74800;44.448;18.652;2024-01-15T11:37:56;97693.28;;;3.58;77.86
84576;BME280;74800;44.448;18.652;2024-01-15T11:42:59;97680.13;;;3.47;78.73
84576;BME280;74800;44.448;18.652;2024-01-15T11:45:26;97678.47;;;3.74;77.39
84576;BME280;74800;44.448;18.652;2024-01-15T11:48:14;97674.88;;;3.79;77.38
84576;BME280;74800;44.448;18.652;2024-01-15T11:50:45;97663.31;;;3.86;78.37
84576;BME280;74800;44.448;18.652;2024-01-15T11:53:24;97660.38;;;4.00;77.32
84576;BME280;74800;44.448;18.652;2024-01-15T11:55:52;97660.09;;;4.43;75.86
84576;BME280;74800;44.448;18.652;2024-01-15T11:58:21;97655.63;;;4.30;75.90
84576;BME280;74800;44.448;18.652;2024-01-15T12:00:48;97658.97;;;4.54;75.22
84576;BME280;74800;44.448;18.652;2024-01-15T12:03:14;97654.81;;;4.53;74.88
84576;BME280;74800;44.448;18.652;2024-01-15T12:05:40;97647.94;;;4.52;74.90
84576;BME280;74800;44.448;18.652;2024-01-15T12:08:07;97644.84;;;4.55;73.98
84576;BME280;74800;44.448;18.652;2024-01-15T12:10:40;97644.16;;;4.87;73.26
84576;BME280;74800;44.448;18.652;2024-01-15T12:13:15;97645.28;;;5.09;73.35
84576;BME280;74800;44.448;18.652;2024-01-15T12:15:43;97634.44;;;5.09;72.93
84576;BME280;74800;44.448;18.652;2024-01-15T12:18:13;97631.81;;;4.94;72.30
84576;BME280;74800;44.448;18.652;2024-01-15T12:20:40;97637.66;;;4.82;74.11
84576;BME280;74800;44.448;18.652;2024-01-15T12:23:07;97629.22;;;5.28;74.03
84576;BME280;74800;44.448;18.652;2024-01-15T12:25:33;97628.31;;;5.50;72.55
84576;BME280;74800;44.448;18.652;2024-01-15T12:27:59;97625.22;;;5.71;71.84
84576;BME280;74800;44.448;18.652;2024-01-15T12:30:28;97618.94;;;5.68;70.65
84576;BME280;74800;44.448;18.652;2024-01-15T12:32:54;97623.03;;;5.94;69.96
84576;BME280;74800;44.448;18.652;2024-01-15T12:35:20;97618.63;;;6.16;69.56
84576;BME280;74800;44.448;18.652;2024-01-15T12:37:47;97609.13;;;6.24;69.25
84576;BME280;74800;44.448;18.652;2024-01-15T12:40:13;97600.50;;;6.01;68.31
84576;BME280;74800;44.448;18.652;2024-01-15T12:42:43;97595.22;;;5.69;69.86
84576;BME280;74800;44.448;18.652;2024-01-15T12:45:09;97591.47;;;5.99;70.92
84576;BME280;74800;44.448;18.652;2024-01-15T12:47:36;97586.44;;;5.95;70.28